Terminal Aerodrome Forecast
Issued by NWS

Home | Current Version | Previous Version | Text Only | Print | Product List | Glossary On
Versions: 1 2 3 4 5 6 7 8 9 10 11 12 13 14 15 16 17 18 19 20 21
486
FTUS41 KGYX 242332
TAFHIE
TAF
KHIE 242332Z 2500/2524 VRB03KT P6SM SCT025 SCT090
     FM250300 00000KT 3SM BR OVC009
     FM250800 00000KT 3/4SM BR OVC009
     FM251300 28006KT P6SM SCT250=

USA.gov is the U.S. government's official web portal to all federal, state and local government web resources and services.